Terminal Aerodrome Forecast
Issued by NWS

Home | Current Version | Previous Version | Text Only | Print | Product List | Glossary On
Versions: 1 2 3 4 5 6 7 8 9 10 11 12 13 14 15 16 17 18 19 20 21
865
FTUS43 KAPX 272322
TAFPLN
TAF
KPLN 272322Z 2800/2824 VRB03KT P6SM SCT120 BKN200
     FM281000 15004KT P6SM OVC110
     FM281200 15006KT P6SM -SHRA OVC090
     FM281400 14007KT P6SM -SHRA OVC050
     FM281800 17008KT 2SM -SHRA BR OVC008=

USA.gov is the U.S. government's official web portal to all federal, state and local government web resources and services.